Time;durP1;ratioP1;P1;durP2;ratioP2;P2;SDS_P1;SDS_P2;PMS_P1;PMS_P2;Temp;Humidity;BMP_temperature;BMP_pressure;BME280_temperature;BME280_humidity;BME280_pressure;Samples;Min_cycle;Max_cycle;Signal;HPM_P1;HPM_P2
2022/08/21 00:00:15;;;;;;;4.68;2.42;;;17.20;99.90;;;;;;5051802;28;20227;-72
2022/08/21 00:02:47;;;;;;;3.92;2.25;;;17.10;99.90;;;;;;5054938;28;20190;-71
2022/08/21 00:05:14;;;;;;;4.47;2.20;;;17.00;99.90;;;;;;5047000;28;20227;-71
2022/08/21 00:07:41;;;;;;;3.55;2.13;;;16.90;99.90;;;;;;5051815;28;20244;-71
2022/08/21 00:10:10;;;;;;;5.55;2.10;;;16.70;99.90;;;;;;5053171;28;20207;-71
2022/08/21 00:12:37;;;;;;;3.90;2.00;;;16.60;99.90;;;;;;5054338;28;20284;-71
2022/08/21 00:15:07;;;;;;;4.95;2.03;;;16.60;99.90;;;;;;5046214;28;20211;-71
2022/08/21 00:17:34;;;;;;;5.95;2.80;;;16.60;99.90;;;;;;5054000;28;20638;-71
2022/08/21 00:20:01;;;;;;;5.72;3.33;;;16.70;99.90;;;;;;5052617;28;20229;-71
2022/08/21 00:22:28;;;;;;;5.63;2.97;;;16.50;99.90;;;;;;5054107;28;20195;-71
2022/08/21 00:24:55;;;;;;;3.85;3.00;;;16.50;99.90;;;;;;5055025;28;20207;-71
2022/08/21 00:27:22;;;;;;;5.32;2.60;;;16.70;99.90;;;;;;5054583;28;20637;-71
2022/08/21 00:29:49;;;;;;;6.72;3.67;;;16.60;99.90;;;;;;5052719;28;20198;-71
2022/08/21 00:32:22;;;;;;;5.68;2.83;;;16.50;99.90;;;;;;5051657;28;20203;-71
2022/08/21 00:34:49;;;;;;;4.05;2.13;;;16.50;99.90;;;;;;5060617;28;20210;-71
2022/08/21 00:37:16;;;;;;;5.47;2.45;;;16.20;99.90;;;;;;5038483;28;20210;-71
2022/08/21 00:39:43;;;;;;;10.55;3.03;;;16.30;99.90;;;;;;5055775;28;20222;-71
2022/08/21 00:42:10;;;;;;;4.57;2.30;;;16.30;99.90;;;;;;5049331;28;20207;-71
2022/08/21 00:44:37;;;;;;;2.92;2.00;;;16.30;99.90;;;;;;5051795;28;20666;-71
2022/08/21 00:47:04;;;;;;;6.15;2.30;;;16.30;99.90;;;;;;5040008;28;20294;-71
2022/08/21 00:49:32;;;;;;;5.85;2.10;;;16.20;99.90;;;;;;5055385;28;20201;-71
2022/08/21 00:52:01;;;;;;;4.70;2.38;;;16.30;99.90;;;;;;5046620;28;20653;-71
2022/08/21 00:54:31;;;;;;;4.63;2.28;;;16.20;99.90;;;;;;5051515;28;20564;-71
2022/08/21 00:57:02;;;;;;;3.40;2.65;;;16.20;99.90;;;;;;5052846;28;20211;-71
2022/08/21 00:59:34;;;;;;;6.40;2.50;;;16.10;99.90;;;;;;5053780;28;20203;-71
2022/08/21 01:02:01;;;;;;;3.42;2.33;;;16.00;99.90;;;;;;5053020;28;20241;-71
2022/08/21 01:04:28;;;;;;;6.70;2.60;;;16.10;99.90;;;;;;5053267;28;20195;-71
2022/08/21 01:06:56;;;;;;;6.68;2.30;;;16.00;99.90;;;;;;5043003;28;20207;-71
2022/08/21 01:09:23;;;;;;;4.43;2.17;;;15.90;99.90;;;;;;5057294;28;20642;-71
2022/08/21 01:11:50;;;;;;;5.25;2.53;;;15.90;99.90;;;;;;5053731;28;20665;-71
2022/08/21 01:14:18;;;;;;;5.97;2.33;;;15.80;99.90;;;;;;5055012;28;20203;-71
2022/08/21 01:16:49;;;;;;;7.60;2.50;;;15.80;99.90;;;;;;5052628;28;20668;-71
2022/08/21 01:19:19;;;;;;;3.53;2.42;;;15.90;99.90;;;;;;5051433;28;20553;-71
2022/08/21 01:21:47;;;;;;;4.70;2.50;;;15.90;99.90;;;;;;5054019;28;20218;-71
2022/08/21 01:24:14;;;;;;;6.60;2.53;;;15.90;99.90;;;;;;5052498;28;20210;-71
2022/08/21 01:26:42;;;;;;;4.13;2.40;;;15.70;99.90;;;;;;5052376;28;20191;-71
2022/08/21 01:29:15;;;;;;;3.60;2.40;;;15.80;99.90;;;;;;5056143;28;20206;-71
2022/08/21 01:31:42;;;;;;;5.28;3.00;;;15.90;99.90;;;;;;5054975;28;20199;-71
2022/08/21 01:34:11;;;;;;;3.75;2.33;;;15.90;99.90;;;;;;5056971;28;20199;-71
2022/08/21 01:36:38;;;;;;;2.90;2.40;;;15.90;99.90;;;;;;5060914;28;20645;-71
2022/08/21 01:39:06;;;;;;;4.78;2.97;;;15.90;99.90;;;;;;5051510;28;20210;-71
2022/08/21 01:41:33;;;;;;;3.90;2.47;;;15.80;99.90;;;;;;5052483;28;20681;-71
2022/08/21 01:44:00;;;;;;;3.47;2.25;;;15.70;99.90;;;;;;5052264;28;20209;-71
2022/08/21 01:46:27;;;;;;;6.50;2.60;;;15.70;99.90;;;;;;5047401;28;20202;-71
2022/08/21 01:48:54;;;;;;;6.63;3.08;;;15.70;99.90;;;;;;5056834;28;20655;-71
2022/08/21 01:51:21;;;;;;;9.35;3.05;;;15.70;99.90;;;;;;5052354;28;20207;-71
2022/08/21 01:53:47;;;;;;;4.63;2.65;;;15.80;99.90;;;;;;5052450;28;20650;-71
2022/08/21 01:56:17;;;;;;;3.53;2.70;;;15.60;99.90;;;;;;5052649;28;20558;-71
2022/08/21 01:58:47;;;;;;;4.55;2.42;;;15.60;99.90;;;;;;5055998;28;20729;-71
2022/08/21 02:01:15;;;;;;;5.03;2.92;;;15.50;99.90;;;;;;5051288;28;20223;-71
2022/08/21 02:03:42;;;;;;;5.53;3.13;;;15.40;99.90;;;;;;5059202;28;20659;-71
2022/08/21 02:06:17;;;;;;;6.00;2.90;;;15.30;99.90;;;;;;5045836;28;20213;-71
2022/08/21 02:08:44;;;;;;;5.88;2.67;;;15.30;99.90;;;;;;5041065;28;20225;-71
2022/08/21 02:11:11;;;;;;;5.70;2.92;;;15.30;99.90;;;;;;5051924;28;20205;-71
2022/08/21 02:13:40;;;;;;;5.32;2.88;;;15.30;99.90;;;;;;5052088;28;20199;-71
2022/08/21 02:16:17;;;;;;;4.45;2.90;;;15.20;99.90;;;;;;5051873;28;20214;-71
2022/08/21 02:18:43;;;;;;;7.45;3.22;;;15.20;99.90;;;;;;5054715;28;20209;-71
2022/08/21 02:21:11;;;;;;;6.18;3.10;;;15.30;99.90;;;;;;5051372;28;20222;-71
2022/08/21 02:23:37;;;;;;;4.78;3.58;;;15.20;99.90;;;;;;5054197;28;20198;-71
2022/08/21 02:26:08;;;;;;;4.00;3.03;;;15.30;99.90;;;;;;5046609;28;20200;-71
2022/08/21 02:28:36;;;;;;;4.75;2.92;;;15.30;99.90;;;;;;5049963;28;20222;-71
2022/08/21 02:31:05;;;;;;;7.35;3.60;;;15.10;99.90;;;;;;5046182;28;20199;-71
2022/08/21 02:33:33;;;;;;;8.77;3.45;;;15.10;99.90;;;;;;5053321;28;20198;-71
2022/08/21 02:36:00;;;;;;;7.45;3.28;;;15.00;99.90;;;;;;5049347;28;20203;-71
2022/08/21 02:38:30;;;;;;;7.30;3.60;;;15.00;99.90;;;;;;5050879;28;20203;-71
2022/08/21 02:40:58;;;;;;;8.65;4.22;;;14.90;99.90;;;;;;5052520;28;20222;-71
2022/08/21 02:43:26;;;;;;;7.53;3.75;;;15.00;99.90;;;;;;5055257;28;20203;-71
2022/08/21 02:45:54;;;;;;;9.63;3.97;;;15.00;99.90;;;;;;5041647;28;20233;-71
2022/08/21 02:48:25;;;;;;;5.93;4.07;;;15.00;99.90;;;;;;5043785;28;20191;-71
2022/08/21 02:50:54;;;;;;;6.65;3.70;;;14.90;99.90;;;;;;5032950;28;20212;-71
2022/08/21 02:53:21;;;;;;;7.05;3.75;;;14.90;99.90;;;;;;5049108;28;20199;-71
2022/08/21 02:55:50;;;;;;;3.83;2.88;;;14.90;99.90;;;;;;5044531;28;20206;-71
2022/08/21 02:58:19;;;;;;;5.57;3.42;;;14.70;99.90;;;;;;5050509;28;20211;-71
2022/08/21 03:00:46;;;;;;;6.85;3.40;;;14.50;99.90;;;;;;5050930;28;20223;-71
2022/08/21 03:03:14;;;;;;;6.80;3.90;;;14.50;99.90;;;;;;5054573;28;20199;-71
2022/08/21 03:05:43;;;;;;;7.00;4.00;;;14.80;99.90;;;;;;5057292;28;20563;-71
2022/08/21 03:08:13;;;;;;;3.97;2.95;;;14.80;99.90;;;;;;5044473;28;20199;-71
2022/08/21 03:10:42;;;;;;;7.65;4.07;;;14.60;99.90;;;;;;5039620;28;20634;-71
2022/08/21 03:13:11;;;;;;;7.50;4.20;;;14.60;99.90;;;;;;5056545;28;20213;-71
2022/08/21 03:15:38;;;;;;;7.80;4.03;;;14.70;99.90;;;;;;5053102;28;20214;-71
2022/08/21 03:18:05;;;;;;;8.20;4.50;;;14.70;99.90;;;;;;5056953;28;20657;-71
2022/08/21 03:20:33;;;;;;;8.20;4.10;;;14.70;99.90;;;;;;5054548;28;20215;-71
2022/08/21 03:23:03;;;;;;;10.48;4.93;;;14.70;99.90;;;;;;5058962;28;20657;-71
2022/08/21 03:25:31;;;;;;;6.57;4.00;;;14.70;99.90;;;;;;5049004;28;20285;-71
2022/08/21 03:27:58;;;;;;;5.88;3.67;;;14.70;99.90;;;;;;5061721;28;20199;-71
2022/08/21 03:30:25;;;;;;;8.27;3.60;;;14.60;99.90;;;;;;5054756;28;20207;-71
2022/08/21 03:32:52;;;;;;;7.00;3.88;;;14.70;99.90;;;;;;5061404;28;20206;-71
2022/08/21 03:35:20;;;;;;;8.13;3.70;;;14.80;99.90;;;;;;5056547;28;20210;-71
2022/08/21 03:37:48;;;;;;;6.13;3.80;;;14.70;99.90;;;;;;5049866;28;20214;-71
2022/08/21 03:40:20;;;;;;;7.28;4.28;;;14.60;99.90;;;;;;5055154;28;20195;-71
2022/08/21 03:42:47;;;;;;;6.57;3.50;;;14.50;99.90;;;;;;5057171;28;20290;-71
2022/08/21 03:45:16;;;;;;;5.70;3.97;;;14.20;99.90;;;;;;5053776;28;20249;-71
2022/08/21 03:47:52;;;;;;;6.43;3.50;;;14.10;99.90;;;;;;5054218;28;20571;-71
2022/08/21 03:50:19;;;;;;;7.97;4.35;;;14.20;99.90;;;;;;5054677;28;20213;-71
2022/08/21 03:52:46;;;;;;;9.77;5.90;;;14.30;99.90;;;;;;5051208;28;20207;-71
2022/08/21 03:55:13;;;;;;;9.60;6.13;;;14.50;99.90;;;;;;5051744;28;20215;-71
2022/08/21 03:57:41;;;;;;;7.07;4.50;;;14.30;99.90;;;;;;5055550;28;20702;-71
2022/08/21 04:00:11;;;;;;;6.72;4.30;;;14.20;99.90;;;;;;5051887;28;20207;-71
2022/08/21 04:02:38;;;;;;;4.63;3.30;;;14.60;99.90;;;;;;5053400;28;20211;-71
2022/08/21 04:05:06;;;;;;;7.30;3.25;;;14.70;99.90;;;;;;5057060;28;20202;-71
2022/08/21 04:07:33;;;;;;;8.35;3.78;;;14.80;99.90;;;;;;5053994;28;20578;-71
2022/08/21 04:10:00;;;;;;;6.90;3.33;;;14.80;99.90;;;;;;5054261;28;20632;-71
2022/08/21 04:12:27;;;;;;;7.57;3.92;;;14.70;99.90;;;;;;5057911;28;20206;-71
2022/08/21 04:14:55;;;;;;;4.95;3.80;;;14.60;99.90;;;;;;5048338;28;20211;-71
2022/08/21 04:17:22;;;;;;;4.68;3.35;;;14.50;99.90;;;;;;5062755;28;20562;-71
2022/08/21 04:19:48;;;;;;;7.00;3.55;;;14.60;99.90;;;;;;5052441;28;20199;-71
2022/08/21 04:22:16;;;;;;;6.40;3.30;;;14.80;99.90;;;;;;5054453;28;20219;-71
2022/08/21 04:24:43;;;;;;;5.82;3.35;;;14.80;99.90;;;;;;5047562;28;20214;-71
2022/08/21 04:27:11;;;;;;;3.40;2.95;;;14.70;99.90;;;;;;5061532;28;20688;-67
2022/08/21 04:29:38;;;;;;;6.40;3.08;;;14.60;99.90;;;;;;5051469;28;20207;-67
2022/08/21 04:32:06;;;;;;;4.65;3.05;;;14.60;99.90;;;;;;5060265;28;20217;-67
2022/08/21 04:34:33;;;;;;;6.15;3.58;;;14.50;99.90;;;;;;5057085;28;20221;-68
2022/08/21 04:37:00;;;;;;;9.57;4.43;;;14.40;99.90;;;;;;5055690;28;20205;-67
2022/08/21 04:39:27;;;;;;;4.45;3.83;;;14.60;99.90;;;;;;5043628;28;20216;-67
2022/08/21 04:41:54;;;;;;;6.25;3.65;;;14.80;99.90;;;;;;5053755;28;20218;-67
2022/08/21 04:44:21;;;;;;;7.32;4.15;;;14.80;99.90;;;;;;5045261;28;20281;-67
2022/08/21 04:46:48;;;;;;;4.47;3.03;;;14.80;99.90;;;;;;5048590;28;20195;-67
2022/08/21 04:49:16;;;;;;;5.50;3.13;;;14.80;99.90;;;;;;5047414;28;20199;-68
2022/08/21 04:51:43;;;;;;;7.85;3.63;;;14.80;99.90;;;;;;5052991;28;20243;-67
2022/08/21 04:54:14;;;;;;;6.45;3.45;;;15.00;99.90;;;;;;5054186;28;20208;-67
2022/08/21 04:56:45;;;;;;;8.07;3.15;;;15.20;99.90;;;;;;5050171;28;20203;-67
2022/08/21 04:59:16;;;;;;;4.45;3.10;;;15.10;99.90;;;;;;5039989;28;20203;-68
2022/08/21 05:01:44;;;;;;;5.32;2.55;;;15.10;99.90;;;;;;5051705;28;20230;-68
2022/08/21 05:04:14;;;;;;;3.00;2.70;;;15.10;99.90;;;;;;5052450;28;20202;-67
2022/08/21 05:06:46;;;;;;;6.43;2.85;;;15.10;99.90;;;;;;5056516;28;20206;-67
2022/08/21 05:09:15;;;;;;;6.45;2.63;;;15.10;99.90;;;;;;5037134;28;20199;-67
2022/08/21 05:11:42;;;;;;;12.45;2.72;;;15.20;99.90;;;;;;5052517;28;20214;-67
2022/08/21 05:14:10;;;;;;;4.45;2.88;;;15.20;99.90;;;;;;5050836;28;20710;-67
2022/08/21 05:16:37;;;;;;;4.85;2.85;;;15.40;99.90;;;;;;5058931;28;20589;-67
2022/08/21 05:19:04;;;;;;;9.57;4.55;;;15.30;99.90;;;;;;5051332;28;20645;-67
2022/08/21 05:21:30;;;;;;;11.77;5.80;;;15.30;99.90;;;;;;5051013;28;20223;-67
2022/08/21 05:23:59;;;;;;;7.78;3.92;;;15.30;99.90;;;;;;5052468;28;20199;-67
2022/08/21 05:26:25;;;;;;;9.43;4.10;;;15.40;99.90;;;;;;5051585;28;20584;-67
2022/08/21 05:28:52;;;;;;;5.18;3.30;;;15.50;99.90;;;;;;5052875;28;20199;-67
2022/08/21 05:31:19;;;;;;;9.70;4.55;;;15.50;99.90;;;;;;5053032;28;20653;-67
2022/08/21 05:33:46;;;;;;;6.75;4.30;;;15.70;99.90;;;;;;5057330;28;20202;-67
2022/08/21 05:36:13;;;;;;;6.07;3.15;;;15.80;99.90;;;;;;5037596;28;20672;-67
2022/08/21 05:38:40;;;;;;;5.65;3.20;;;15.90;99.90;;;;;;5033222;28;20207;-67
2022/08/21 05:41:09;;;;;;;7.85;4.57;;;15.90;99.90;;;;;;5051099;28;20203;-67
2022/08/21 05:43:36;;;;;;;8.35;3.55;;;16.00;99.90;;;;;;5046161;28;20201;-66
2022/08/21 05:46:04;;;;;;;5.70;3.20;;;15.80;99.90;;;;;;5052250;28;20230;-67
2022/08/21 05:48:31;;;;;;;5.60;3.20;;;15.80;99.90;;;;;;5048083;28;20209;-67
2022/08/21 05:50:59;;;;;;;4.75;2.90;;;16.00;99.90;;;;;;5046010;28;20217;-66
2022/08/21 05:53:26;;;;;;;7.70;3.33;;;15.80;99.90;;;;;;5050160;28;20202;-66
2022/08/21 05:55:53;;;;;;;5.22;3.00;;;15.90;99.90;;;;;;5049608;28;20203;-66
2022/08/21 05:58:22;;;;;;;3.80;3.05;;;16.30;99.90;;;;;;5046590;28;20227;-66
2022/08/21 06:00:51;;;;;;;7.57;2.55;;;16.50;99.90;;;;;;5050237;28;20203;-67
2022/08/21 06:03:21;;;;;;;5.07;2.83;;;16.70;99.90;;;;;;5049929;28;20238;-66
2022/08/21 06:05:48;;;;;;;5.20;2.80;;;17.00;99.90;;;;;;5046185;28;20210;-67
2022/08/21 06:08:16;;;;;;;3.45;2.60;;;16.90;99.90;;;;;;5050756;28;20649;-67
2022/08/21 06:10:44;;;;;;;6.80;2.60;;;17.00;99.90;;;;;;5048010;28;20207;-66
2022/08/21 06:13:11;;;;;;;4.95;2.65;;;17.20;99.90;;;;;;5048752;28;20198;-66
2022/08/21 06:15:39;;;;;;;5.90;2.80;;;17.40;99.90;;;;;;5043834;28;20214;-66
2022/08/21 06:18:06;;;;;;;4.28;2.28;;;17.40;99.90;;;;;;5050308;28;20209;-66
2022/08/21 06:20:34;;;;;;;7.00;2.63;;;17.50;99.90;;;;;;5045963;28;20207;-67
2022/08/21 06:23:01;;;;;;;5.70;2.63;;;17.60;99.90;;;;;;5046824;28;20696;-66
2022/08/21 06:25:29;;;;;;;3.20;2.67;;;17.70;99.90;;;;;;5047711;28;20206;-66
2022/08/21 06:28:02;;;;;;;6.18;2.50;;;17.80;99.90;;;;;;5047352;28;20568;-67
2022/08/21 06:30:28;;;;;;;4.72;2.30;;;17.80;99.90;;;;;;5047122;28;20225;-67
2022/08/21 06:32:57;;;;;;;7.80;2.97;;;17.90;99.90;;;;;;5046999;28;20201;-67
2022/08/21 06:35:24;;;;;;;5.07;2.40;;;17.90;99.90;;;;;;5043537;28;20198;-66
2022/08/21 06:37:51;;;;;;;5.60;2.78;;;17.90;99.90;;;;;;5052520;28;20199;-67
2022/08/21 06:40:18;;;;;;;8.43;2.90;;;17.80;99.90;;;;;;5055543;28;20226;-67
2022/08/21 06:42:45;;;;;;;3.45;2.55;;;17.80;99.90;;;;;;5047807;28;20568;-66
2022/08/21 06:45:11;;;;;;;6.47;2.92;;;17.80;99.90;;;;;;5049891;28;20203;-66
2022/08/21 06:47:38;;;;;;;7.07;3.40;;;17.80;99.90;;;;;;5049024;28;20645;-67
2022/08/21 06:50:08;;;;;;;4.93;2.90;;;17.80;99.90;;;;;;5050280;28;20210;-66
2022/08/21 06:52:35;;;;;;;6.32;3.05;;;17.80;99.90;;;;;;5049381;28;20203;-66
2022/08/21 06:55:02;;;;;;;7.68;2.97;;;17.90;99.90;;;;;;5054933;28;20250;-66
2022/08/21 06:57:28;;;;;;;5.47;2.90;;;17.90;99.90;;;;;;5054876;28;20207;-66
2022/08/21 06:59:55;;;;;;;7.15;3.75;;;17.90;99.90;;;;;;5054349;28;20290;-66
2022/08/21 07:02:22;;;;;;;10.45;3.60;;;17.90;99.90;;;;;;5046205;28;20226;-67
2022/08/21 07:04:49;;;;;;;5.97;3.50;;;18.00;99.90;;;;;;5053264;28;20695;-72
2022/08/21 07:07:18;;;;;;;7.15;3.42;;;18.10;99.90;;;;;;5052815;28;20207;-66
2022/08/21 07:09:44;;;;;;;6.57;3.53;;;18.40;99.90;;;;;;5054220;28;20203;-68
2022/08/21 07:12:11;;;;;;;6.55;3.78;;;18.40;99.90;;;;;;5049319;28;20282;-66
2022/08/21 07:14:38;;;;;;;8.05;3.85;;;18.80;99.90;;;;;;5051722;28;20210;-73
2022/08/21 07:17:05;;;;;;;5.90;3.75;;;19.00;99.90;;;;;;5061152;28;20194;-67
2022/08/21 07:19:33;;;;;;;6.80;4.07;;;18.80;99.90;;;;;;5047726;28;20294;-73
2022/08/21 07:22:02;;;;;;;7.65;3.55;;;18.80;99.90;;;;;;5056199;28;20219;-73
2022/08/21 07:24:30;;;;;;;5.00;3.70;;;18.70;99.90;;;;;;5039070;28;20211;-73
2022/08/21 07:26:57;;;;;;;5.18;3.55;;;18.80;99.90;;;;;;5055758;28;20203;-73
2022/08/21 07:29:24;;;;;;;8.07;4.03;;;18.90;99.90;;;;;;5055996;28;20211;-73
2022/08/21 07:31:51;;;;;;;8.35;4.35;;;19.10;99.90;;;;;;5060804;28;20219;-73
2022/08/21 07:34:18;;;;;;;7.72;4.47;;;19.10;99.90;;;;;;5054895;28;20210;-73
2022/08/21 07:36:46;;;;;;;10.80;4.63;;;19.10;99.90;;;;;;5052705;28;20198;-73
2022/08/21 07:39:13;;;;;;;10.90;4.63;;;19.00;99.90;;;;;;5059689;28;20553;-73
2022/08/21 07:41:41;;;;;;;9.15;4.43;;;19.00;99.90;;;;;;5062316;28;20209;-73
2022/08/21 07:44:09;;;;;;;6.43;4.05;;;19.10;99.90;;;;;;5057681;28;20202;-73
2022/08/21 07:46:36;;;;;;;4.95;4.00;;;19.30;99.90;;;;;;5045642;28;20192;-73
2022/08/21 07:49:03;;;;;;;12.35;4.28;;;19.40;99.90;;;;;;5047567;28;20206;-73
2022/08/21 07:51:30;;;;;;;7.70;4.03;;;19.40;99.90;;;;;;5054767;28;20214;-73
2022/08/21 07:53:58;;;;;;;7.65;4.13;;;19.50;99.90;;;;;;5060410;28;20567;-72
2022/08/21 07:56:26;;;;;;;12.55;4.15;;;19.60;99.90;;;;;;5061540;28;20198;-73
2022/08/21 07:58:57;;;;;;;8.10;3.75;;;19.80;99.90;;;;;;5056064;28;20192;-73
2022/08/21 08:01:24;;;;;;;7.95;3.40;;;19.70;99.90;;;;;;5055515;28;20206;-73
2022/08/21 08:03:51;;;;;;;6.82;3.42;;;19.80;99.90;;;;;;5055088;28;20310;-73
2022/08/21 08:06:19;;;;;;;6.40;3.65;;;19.70;99.90;;;;;;5052153;28;20290;-73
2022/08/21 08:08:47;;;;;;;7.20;3.80;;;19.80;99.90;;;;;;5052804;28;20264;-73
2022/08/21 08:11:15;;;;;;;6.95;3.95;;;19.80;99.90;;;;;;5051299;28;20199;-73
2022/08/21 08:13:47;;;;;;;4.40;4.00;;;19.70;99.90;;;;;;5050862;28;20199;-73
2022/08/21 08:16:15;;;;;;;8.70;4.03;;;19.80;99.90;;;;;;5051810;28;20207;-73
2022/08/21 08:18:44;;;;;;;7.50;3.63;;;19.80;99.90;;;;;;5052837;28;20771;-73
2022/08/21 08:21:12;;;;;;;7.32;4.22;;;19.80;99.90;;;;;;5050357;28;20290;-73
2022/08/21 08:23:39;;;;;;;9.73;4.88;;;20.00;99.90;;;;;;5054094;28;20600;-73
2022/08/21 08:26:06;;;;;;;7.53;4.18;;;20.10;99.90;;;;;;5052407;28;20260;-73
2022/08/21 08:28:34;;;;;;;8.85;4.10;;;20.20;99.90;;;;;;5052545;28;20199;-73
2022/08/21 08:31:02;;;;;;;9.32;3.72;;;20.30;99.90;;;;;;5053186;28;20202;-73
2022/08/21 08:33:31;;;;;;;6.00;3.67;;;20.40;99.90;;;;;;5051313;28;20191;-73
2022/08/21 08:35:58;;;;;;;9.63;3.30;;;20.50;99.90;;;;;;5052851;28;20207;-72
2022/08/21 08:38:26;;;;;;;7.70;4.25;;;20.50;99.90;;;;;;5049819;28;20203;-73
2022/08/21 08:41:05;;;;;;;7.07;3.50;;;20.60;99.90;;;;;;5050778;28;20207;-73
2022/08/21 08:43:34;;;;;;;6.00;3.33;;;20.60;99.90;;;;;;5049460;28;20272;-73
2022/08/21 08:46:19;;;;;;;7.68;3.50;;;20.70;99.90;;;;;;5053422;28;20223;-73
2022/08/21 08:48:53;;;;;;;9.13;3.95;;;21.00;99.90;;;;;;5049409;28;20204;-74
2022/08/21 08:51:26;;;;;;;7.10;3.30;;;21.00;99.90;;;;;;5049275;28;20214;-75
2022/08/21 08:53:58;;;;;;;9.23;3.47;;;21.00;99.90;;;;;;5052148;28;20248;-75
2022/08/21 08:56:29;;;;;;;8.82;3.38;;;21.10;99.90;;;;;;5047199;28;20246;-75
2022/08/21 08:59:16;;;;;;;6.30;3.20;;;21.20;99.90;;;;;;5049101;28;20681;-76
2022/08/21 09:01:43;;;;;;;7.38;3.47;;;21.20;99.90;;;;;;5039876;28;20195;-75
2022/08/21 09:04:13;;;;;;;6.78;3.30;;;21.30;99.90;;;;;;5052372;28;20220;-75
2022/08/21 09:06:54;;;;;;;7.15;3.22;;;21.60;99.90;;;;;;5050964;28;20215;-76
2022/08/21 09:09:40;;;;;;;3.92;2.78;;;21.70;99.90;;;;;;5048941;28;20222;-75
2022/08/21 09:12:12;;;;;;;6.22;3.65;;;22.20;99.90;;;;;;5051353;28;20198;-75
2022/08/21 09:14:53;;;;;;;7.05;3.22;;;22.70;99.90;;;;;;5048947;28;20222;-75
2022/08/21 09:17:36;;;;;;;6.47;2.80;;;23.20;99.90;;;;;;5034086;28;20657;-75
2022/08/21 09:20:30;;;;;;;6.03;2.42;;;23.40;99.90;;;;;;5048431;28;20198;-75
2022/08/21 09:23:09;;;;;;;5.05;3.05;;;24.00;97.30;;;;;;5052339;28;20225;-76
2022/08/21 09:25:46;;;;;;;5.07;2.55;;;24.30;74.60;;;;;;5031228;28;20206;-76
2022/08/21 09:28:14;;;;;;;5.85;2.90;;;24.20;56.80;;;;;;5050897;28;20222;-76
2022/08/21 09:30:42;;;;;;;5.57;3.00;;;24.60;79.70;;;;;;5051554;28;20203;-75
2022/08/21 09:33:15;;;;;;;3.63;2.42;;;25.10;74.00;;;;;;5044677;28;20210;-75
2022/08/21 09:35:53;;;;;;;5.35;2.80;;;25.00;44.70;;;;;;5051509;28;20684;-75
2022/08/21 09:38:29;;;;;;;6.63;2.78;;;25.10;36.60;;;;;;5046080;28;20214;-75
2022/08/21 09:41:03;;;;;;;2.58;2.05;;;25.60;32.90;;;;;;5047388;28;20727;-75
2022/08/21 09:43:30;;;;;;;5.68;2.22;;;25.20;29.50;;;;;;5043606;28;20254;-75
2022/08/21 09:46:09;;;;;;;4.13;2.72;;;25.90;31.00;;;;;;5050198;28;20205;-75
2022/08/21 09:48:45;;;;;;;6.00;2.55;;;25.90;21.90;;;;;;5050167;28;20196;-75
2022/08/21 09:51:18;;;;;;;2.65;2.03;;;26.10;21.80;;;;;;5049290;28;20190;-75
2022/08/21 09:53:51;;;;;;;7.15;3.42;;;26.10;24.10;;;;;;5050458;28;20238;-75
2022/08/21 09:59:17;;;;;;;5.78;2.60;;;26.30;17.80;;;;;;5049401;28;20210;-76
2022/08/21 10:01:45;;;;;;;5.97;2.60;;;26.60;20.40;;;;;;5050746;28;20634;-75
2022/08/21 10:04:13;;;;;;;6.47;2.67;;;27.10;16.20;;;;;;5050067;28;20301;-76
2022/08/21 10:06:42;;;;;;;5.35;2.85;;;26.70;13.10;;;;;;5044710;28;20252;-76
2022/08/21 10:09:11;;;;;;;5.72;2.40;;;26.90;12.50;;;;;;5046518;28;20206;-75
2022/08/21 10:11:38;;;;;;;3.33;2.00;;;26.60;8.80;;;;;;5050352;28;20203;-76
2022/08/21 10:14:17;;;;;;;3.97;1.95;;;25.80;10.70;;;;;;5050243;28;20213;-75
2022/08/21 10:16:54;;;;;;;5.13;2.15;;;26.20;10.40;;;;;;5050903;28;20211;-76
2022/08/21 10:19:31;;;;;;;5.18;2.40;;;26.90;12.20;;;;;;5046430;28;20229;-76
2022/08/21 10:22:08;;;;;;;4.88;2.17;;;26.70;4.70;;;;;;5045495;28;20211;-75
2022/08/21 10:24:40;;;;;;;4.10;2.17;;;26.10;4.00;;;;;;5047180;28;20214;-67
2022/08/21 10:27:17;;;;;;;2.75;2.10;;;25.90;2.20;;;;;;5049484;28;20209;-68
2022/08/21 10:29:52;;;;;;;5.28;2.33;;;26.50;3.60;;;;;;5042302;28;20206;-68
2022/08/21 10:32:38;;;;;;;8.88;2.70;;;27.40;4.00;;;;;;5050719;28;20683;-67
2022/08/21 10:35:14;;;;;;;3.83;2.25;;;27.80;1.00;;;;;;5047084;28;20210;-67
2022/08/21 10:37:59;;;;;;;4.00;2.13;;;26.60;1.00;;;;;;5047220;28;20289;-68
2022/08/21 10:40:31;;;;;;;5.60;2.28;;;26.10;5.00;;;;;;5028237;28;20616;-67
2022/08/21 10:43:09;;;;;;;7.10;3.40;;;26.30;7.00;;;;;;5043666;28;20234;-67
2022/08/21 10:45:48;;;;;;;4.65;2.30;;;26.40;3.00;;;;;;5047384;28;20206;-68
2022/08/21 10:48:25;;;;;;;5.00;2.38;;;25.90;1.00;;;;;;5049797;28;20205;-67
2022/08/21 10:50:59;;;;;;;5.97;2.00;;;25.80;3.70;;;;;;5030012;28;20217;-68
2022/08/21 10:53:51;;;;;;;6.50;2.25;;;25.50;4.90;;;;;;5030815;28;20199;-68
2022/08/21 10:56:22;;;;;;;4.47;2.15;;;25.80;2.60;;;;;;5045393;28;20199;-68
2022/08/21 10:59:05;;;;;;;4.57;2.10;;;26.80;1.50;;;;;;5051698;28;20721;-68
2022/08/21 11:01:40;;;;;;;5.50;2.10;;;26.90;1.00;;;;;;5047813;28;20199;-68
2022/08/21 11:04:13;;;;;;;4.20;2.10;;;26.90;1.00;;;;;;5051407;28;20214;-67
2022/08/21 11:06:47;;;;;;;4.68;2.13;;;26.60;1.00;;;;;;5050249;28;20215;-67
2022/08/21 11:09:18;;;;;;;2.53;1.88;;;26.40;4.30;;;;;;5048703;28;20205;-68
2022/08/21 11:11:49;;;;;;;6.00;2.15;;;26.20;1.00;;;;;;5047201;28;20701;-67
2022/08/21 11:14:31;;;;;;;4.38;2.00;;;25.90;1.00;;;;;;5048567;28;20210;-68
2022/08/21 11:17:03;;;;;;;2.22;1.77;;;25.70;1.00;;;;;;5048568;28;20199;-68
2022/08/21 11:19:34;;;;;;;6.13;2.10;;;25.90;1.00;;;;;;5048624;28;20199;-67
2022/08/21 11:22:11;;;;;;;4.13;2.22;;;26.00;1.00;;;;;;5048652;28;20211;-67
2022/08/21 11:24:45;;;;;;;3.90;2.15;;;26.60;2.10;;;;;;5030684;28;20222;-68
2022/08/21 11:27:21;;;;;;;3.92;2.00;;;26.80;1.00;;;;;;5041930;28;20203;-67
2022/08/21 11:29:51;;;;;;;3.40;2.00;;;27.50;1.00;;;;;;5049599;28;20603;-67
2022/08/21 11:32:34;;;;;;;4.78;2.05;;;27.40;1.00;;;;;;5047283;28;20810;-67
2022/08/21 11:35:09;;;;;;;3.40;1.83;;;27.70;1.00;;;;;;5051312;28;20665;-68
2022/08/21 11:37:55;;;;;;;5.25;1.75;;;27.60;1.00;;;;;;5045671;28;20205;-68
2022/08/21 11:40:39;;;;;;;4.32;2.03;;;28.00;1.00;;;;;;5051898;28;20748;-68
2022/08/21 11:43:17;;;;;;;4.25;1.92;;;27.70;1.00;;;;;;5035090;28;20222;-68
2022/08/21 11:45:49;;;;;;;3.85;1.80;;;27.90;1.00;;;;;;5050324;28;20229;-68
2022/08/21 11:48:28;;;;;;;4.07;1.67;;;28.10;1.00;;;;;;5047640;28;20209;-68
2022/08/21 11:50:57;;;;;;;5.75;2.05;;;28.00;1.00;;;;;;5047199;28;20203;-68
2022/08/21 11:53:33;;;;;;;4.80;2.00;;;27.20;1.00;;;;;;5049221;28;20202;-68
2022/08/21 11:56:06;;;;;;;3.83;1.90;;;27.20;1.00;;;;;;5051396;28;20201;-68
2022/08/21 11:58:39;;;;;;;5.03;1.63;;;27.70;1.00;;;;;;5047319;28;20203;-68
2022/08/21 12:01:11;;;;;;;2.92;1.58;;;27.20;1.00;;;;;;5056130;28;20206;-68
2022/08/21 12:03:41;;;;;;;5.45;1.80;;;27.20;1.00;;;;;;5051512;28;20555;-69
2022/08/21 12:06:12;;;;;;;2.33;1.42;;;27.30;1.00;;;;;;5051909;28;20213;-68
2022/08/21 12:08:40;;;;;;;3.10;1.60;;;27.50;1.00;;;;;;5045770;28;20195;-68
2022/08/21 12:11:23;;;;;;;2.95;1.85;;;27.20;1.00;;;;;;5049548;28;20199;-68
2022/08/21 12:13:56;;;;;;;5.30;1.90;;;26.90;1.00;;;;;;5047985;28;20664;-68
2022/08/21 12:16:30;;;;;;;3.47;1.95;;;26.70;1.00;;;;;;5030424;28;20250;-67
2022/08/21 12:19:05;;;;;;;4.25;2.03;;;26.80;1.00;;;;;;5030262;28;20245;-67
2022/08/21 12:21:32;;;;;;;3.05;1.45;;;27.30;1.00;;;;;;5047226;28;20206;-68
2022/08/21 12:24:16;;;;;;;6.28;1.95;;;27.60;1.00;;;;;;5046227;28;20223;-68
2022/08/21 12:26:53;;;;;;;4.25;1.85;;;27.50;1.00;;;;;;5048075;28;20606;-68
2022/08/21 12:29:26;;;;;;;3.70;1.70;;;26.70;1.00;;;;;;5034053;28;20203;-67
2022/08/21 12:32:00;;;;;;;2.95;1.80;;;25.80;1.00;;;;;;5045257;28;20206;-67
2022/08/21 12:34:37;;;;;;;5.47;2.03;;;26.00;1.00;;;;;;5051361;28;20812;-68
2022/08/21 12:37:07;;;;;;;2.63;1.67;;;26.30;1.00;;;;;;5032526;28;20214;-68
2022/08/21 12:39:39;;;;;;;4.13;2.10;;;26.40;1.00;;;;;;5038924;28;20208;-67
2022/08/21 12:42:17;;;;;;;4.20;1.98;;;25.90;1.00;;;;;;5042325;28;20218;-67
2022/08/21 12:44:47;;;;;;;5.35;1.90;;;26.10;1.00;;;;;;5048086;28;20657;-68
2022/08/21 12:47:17;;;;;;;3.47;1.75;;;25.70;1.00;;;;;;5039649;28;20210;-68
2022/08/21 12:49:55;;;;;;;4.50;1.88;;;25.80;1.00;;;;;;5042239;28;20207;-68
2022/08/21 12:52:24;;;;;;;4.47;1.95;;;26.10;1.00;;;;;;5051324;28;20198;-68
2022/08/21 12:54:51;;;;;;;4.07;1.85;;;26.60;1.00;;;;;;5035209;28;20199;-68
2022/08/21 12:57:22;;;;;;;3.30;1.95;;;26.80;1.00;;;;;;5048718;28;20705;-75
2022/08/21 12:59:54;;;;;;;4.07;2.00;;;26.80;1.00;;;;;;5051782;28;20230;-78
2022/08/21 13:02:24;;;;;;;2.88;1.80;;;26.40;1.00;;;;;;5043715;28;20222;-75
2022/08/21 13:04:53;;;;;;;5.97;1.70;;;25.80;1.00;;;;;;5032018;28;20722;-76